Toledo, Iowa
Current Conditions -  °F | °C
As of 2:53 AM on Thursday 27 Nov 2014 (Local Time) from KMIW Reporting Station
Overcast Overcast  
Wind Chill: -2°   Ceiling: 2100
Heat Index: 15°   Visibility: 10mi
Dew Point: 10°   Wind: 21mph
Humidity: 80%   Direction: 320°NW
Pressure: 30.4"   Gusts: NA
Location:  42°N, 92.58°W
Report Text: KMIW 270853Z AUTO 32018KT 10SM OVC021 M09/M12 A3040 RMK AO2 SLP308 T10941122 53017
Loading
Personal Weather Stations






























Interactive Weather Map New forecast layout! Learn more

10-Day Weather Forecast

Advertisements
Track Severe Weather on mobile